Etusivu
METAR-TAF:

METAR-TAF

Lentoasemat :

Aurora State Airport

Aurora, Oregon, Yhdysvallat

Leveyspiiri: 45-14-56N, Pituuspiiri: 122-45-56W, korkeus merenpinnasta: 59 m

Tämänhetkinen sää

Tämä raportti tehtiin 1 tunti ja 5 minuuttia sitten, kello 12.53 UTC
Tuuli 4 kn etelästä
Lämpötila 10°C
Kosteus 87%
Ilmanpaine 1017 hPa
Näkyvyys: 16.1 km
selkeää

METAR: KUAO 291253Z AUTO 17004KT 10SM CLR 10/08 A3002 RMK AO2 SLP164 T01000078

Aika: 06:58 (13:58 UTC)

Sääennuste

Tämä raportti tehtiin 2 tuntia ja 38 minuuttia sitten, kello 11.20 UTC
Ennuste voimassa 29. päivästä klo 12 UTC - 30. päivään klo 12 UTC
Tuuli 3 kn eri suunnista
Näkyvyys: 10 km
selkeää

TAF: KUAO 291120Z 2912/3012 VRB03KT P6SM SKC

Säähavainnot ja -ennusteet yli 4000 lentoasemalta (METAR- ja TAF-raportit).

Käytössä olevat sääasemat on merkitty karttaan keltaisilla ja punaisilla pisteillä.

Aseta hiiri pisteen päälle nähdäksesi sääaseman nimen.

Klikkaa sitten nähdäksesi säähavainnot ja -ennusteet.

Kartan vaihtaminen: klikkaa mustalla rastilla varustettuja vihreitä pisteitä, niin voit zoomata sisään; viivalla varustettua vihreää pistettä, niin voit zoomata ulos tai vihreitä nuolia, niin pääset viereisille kartoille.


METAR-TAF: